Grenadines III — CRA5628 — position and weather

sailwx.info

Track history (hours):
 
Tides and Currents Weather Stations Pressure Air Temp Water Temp Dewpoint Dewpoint Depression Visibility Wind Speed Wind Dir Waves Ship Positions

Grenadines III

Last reported at 2016-Jun-27 12:33 UTC. Time now 2016-Jul-02 02:09 UTC.
Position N 43°30' E 007°00'.

Type: Pilot. MMSI: 225910870.

Date/timePositionNaut miles runAvg speedWind from/ knotsBaromVisibWave heightAir tempDewpointWater temp
2016-Jun-27 12:33N 43°30' E 007°00'3 3.2
2016-Jun-27 11:33N 43°33' E 007°01'0 0.0
2016-Jun-27 10:18N 43°33' E 007°01'0 0.0
2016-Jun-27 09:33N 43°33' E 007°01'0 0.0
2016-Jun-27 08:33N 43°33' E 007°01'0 0.0
2016-Jun-27 07:09N 43°33' E 007°01'0 0.0
2016-Jun-27 06:24N 43°33' E 007°01'0 0.0
2016-Jun-26 22:15N 43°33' E 007°01'0 0.0
2016-Jun-26 20:15N 43°33' E 007°01'0 0.0
2016-Jun-26 19:33N 43°33' E 007°01'0 0.0
2016-Jun-26 16:06N 43°33' E 007°01'0 0.0
2016-Jun-26 15:27N 43°33' E 007°01'0 0.0
2016-Jun-26 14:09N 43°33' E 007°01'0 0.0
2016-Jun-26 13:27N 43°33' E 007°01'0 0.0
2016-Jun-26 12:30N 43°33' E 007°01'0 0.0
2016-Jun-26 11:27N 43°33' E 007°01'0 0.0
2016-Jun-26 10:30N 43°33' E 007°01'0 0.0
2016-Jun-26 09:33N 43°33' E 007°01'0 0.0
2016-Jun-26 08:33N 43°33' E 007°01'0 0.0
2016-Jun-26 07:30N 43°33' E 007°01'0 0.0
2016-Jun-26 06:33N 43°33' E 007°01'0 0.0
2016-Jun-26 05:33N 43°33' E 007°01'0 0.0
2016-Jun-26 04:33N 43°33' E 007°01'0 0.0
2016-Jun-26 03:33N 43°33' E 007°01'0 0.0
2016-Jun-26 02:06N 43°33' E 007°01'0 0.0
2016-Jun-26 01:27N 43°33' E 007°01'0 0.0
2016-Jun-26 00:27N 43°33' E 007°01'0 0.0
2016-Jun-25 22:30N 43°33' E 007°01'0 0.0
2016-Jun-25 21:30N 43°33' E 007°01'0 0.0
2016-Jun-25 20:30N 43°33' E 007°01'0 0.0
2016-Jun-25 19:33N 43°33' E 007°01'0 0.0
2016-Jun-25 18:33N 43°33' E 007°01'0 0.0
2016-Jun-25 17:33N 43°33' E 007°01'0 0.0
2016-Jun-25 16:33N 43°33' E 007°01'0 0.0
2016-Jun-25 15:33N 43°33' E 007°01'1 0.6
2016-Jun-25 14:31N 43°33' E 007°02'0 0.0
2016-Jun-25 13:31N 43°33' E 007°02'0 0.0
2016-Jun-25 12:31N 43°33' E 007°02'0 0.0
2016-Jun-25 11:32N 43°33' E 007°02'1 0.3
2016-Jun-25 09:28N 43°33' E 007°01'0 0.0
2016-Jun-25 08:25N 43°33' E 007°01'0 0.0
2016-Jun-25 07:16N 43°33' E 007°01'0 0.0
2016-Jun-25 06:28N 43°33' E 007°01'0 0.0
2016-Jun-25 04:28N 43°33' E 007°01'0 0.0
2016-Jun-25 03:31N 43°33' E 007°01'0 0.0
2016-Jun-24 20:28N 43°33' E 007°01'0 0.0
2016-Jun-24 12:33N 43°33' E 007°01'4 4.1
2016-Jun-24 11:33N 43°29' E 006°59'4 4.0
2016-Jun-24 10:27N 43°33' E 007°01'0 0.0
2016-Jun-24 09:24N 43°33' E 007°01'0 0.0
2016-Jun-24 08:30N 43°33' E 007°01'0 0.0
2016-Jun-24 07:30N 43°33' E 007°01'0 0.0
2016-Jun-24 04:33N 43°33' E 007°01'0 0.0
2016-Jun-24 03:30N 43°33' E 007°01'0 0.0
2016-Jun-24 02:21N 43°33' E 007°01'0 0.0
2016-Jun-24 01:33N 43°33' E 007°01'0 0.0
2016-Jun-24 00:33N 43°33' E 007°01'0 0.0
2016-Jun-23 23:24N 43°33' E 007°01'0 0.0
2016-Jun-23 22:24N 43°33' E 007°01'0 0.0
2016-Jun-23 21:27N 43°33' E 007°01'0 0.0
2016-Jun-23 20:24N 43°33' E 007°01'0 0.0
2016-Jun-23 19:27N 43°33' E 007°01'0 0.0
2016-Jun-23 18:12N 43°33' E 007°01'0 0.0
2016-Jun-23 14:15N 43°33' E 007°01'0 0.0
2016-Jun-23 13:30N 43°33' E 007°01'1 0.6
2016-Jun-23 12:33N 43°32' E 007°01'1 1.2
2016-Jun-23 11:32N 43°31' E 007°00'2 1.6
2016-Jun-23 10:23N 43°33' E 007°01'0 0.0
2016-Jun-23 09:08N 43°33' E 007°01'0 0.0
2016-Jun-23 08:23N 43°33' E 007°01'0 0.0
2016-Jun-23 07:08N 43°33' E 007°01'0 0.0
2016-Jun-23 05:29N 43°33' E 007°01'0 0.0
2016-Jun-23 04:29N 43°33' E 007°01'0 0.0
2016-Jun-23 03:32N 43°33' E 007°01'0 0.0
2016-Jun-23 02:32N 43°33' E 007°01'0 0.0
2016-Jun-23 01:32N 43°33' E 007°01'0 0.0
2016-Jun-22 20:27N 43°33' E 007°01'0 0.5
2016-Jun-22 19:31N 43°33' E 007°01'0 0.0
2016-Jun-22 18:31N 43°33' E 007°01'0 0.0
2016-Jun-22 07:33N 43°33' E 007°01'0 0.0
2016-Jun-22 06:33N 43°33' E 007°01'0 0.0
2016-Jun-22 03:15N 43°33' E 007°01'0 0.0
2016-Jun-22 02:33N 43°33' E 007°01'0 0.0
2016-Jun-21 22:33N 43°33' E 007°01'0 0.0
2016-Jun-21 21:30N 43°33' E 007°01'0 0.0
2016-Jun-21 18:30N 43°33' E 007°01'0 0.0
2016-Jun-21 17:33N 43°33' E 007°01'0 0.0
2016-Jun-21 14:18N 43°33' E 007°01'0 0.0
2016-Jun-21 13:30N 43°33' E 007°01'0 0.5
2016-Jun-21 12:33N 43°33' E 007°01'1 1.2
2016-Jun-21 11:31N 43°32' E 006°59'1 0.6
2016-Jun-21 09:09N 43°33' E 007°01'0 0.0
2016-Jun-21 08:24N 43°33' E 007°01'0 0.0
2016-Jun-21 07:33N 43°33' E 007°01'0 0.0
2016-Jun-20 15:33N 43°33' E 007°01'0 0.0
2016-Jun-20 14:33N 43°33' E 007°01'0 0.2
2016-Jun-20 12:33N 43°33' E 007°01'2 2.2
2016-Jun-20 11:33N 43°30' E 007°01'3 1.2
2016-Jun-20 09:17N 43°33' E 007°01'0 0.0
2016-Jun-20 06:11N 43°33' E 007°01'0 0.0
2016-Jun-20 05:32N 43°33' E 007°01'0 0.0
2016-Jun-20 04:32N 43°33' E 007°01'0 0.0
2016-Jun-20 01:32N 43°33' E 007°01'0 0.0
2016-Jun-20 00:32N 43°33' E 007°01'0 0.0
2016-Jun-19 21:32N 43°33' E 007°01'0 0.0
2016-Jun-19 17:17N 43°33' E 007°01'0 0.0
2016-Jun-19 16:32N 43°33' E 007°01'0 0.0
2016-Jun-19 15:32N 43°33' E 007°01'0 0.0
2016-Jun-19 12:29N 43°33' E 007°01'0 0.0
2016-Jun-19 11:32N 43°33' E 007°01'0 0.0
2016-Jun-19 08:11N 43°33' E 007°01'0 0.0
2016-Jun-19 07:32N 43°33' E 007°01'0 0.0
2016-Jun-19 04:23N 43°33' E 007°01'0 0.0
2016-Jun-19 03:32N 43°33' E 007°01'0 0.0
2016-Jun-19 02:32N 43°33' E 007°01'0 0.0
2016-Jun-19 00:05N 43°33' E 007°01'0 0.0
2016-Jun-18 23:32N 43°33' E 007°01'0 0.0
2016-Jun-18 22:32N 43°33' E 007°01'0 0.0
2016-Jun-18 19:32N 43°33' E 007°01'0 0.0
2016-Jun-18 18:32N 43°33' E 007°01'0 0.1
2016-Jun-18 16:27N 43°33' E 007°01'0 0.0
2016-Jun-18 13:32N 43°33' E 007°01'0 0.0
2016-Jun-18 12:32N 43°33' E 007°01'0 0.0
2016-Jun-18 08:26N 43°33' E 007°01'0 0.0
2016-Jun-18 05:32N 43°33' E 007°01'0 0.0
2016-Jun-18 04:29N 43°33' E 007°01'0 0.0
2016-Jun-18 01:32N 43°33' E 007°01'0 0.0
2016-Jun-18 00:29N 43°33' E 007°01'0 0.0
2016-Jun-17 21:17N 43°33' E 007°01'0 0.0
2016-Jun-17 20:32N 43°33' E 007°01'0 0.0
2016-Jun-17 19:32N 43°33' E 007°01'0 0.0
2016-Jun-17 16:32N 43°33' E 007°01'0 0.0
2016-Jun-17 15:32N 43°33' E 007°01'  
Track history (hours):
 
Tides and Currents Weather Stations Pressure Air Temp Water Temp Dewpoint Dewpoint Depression Visibility Wind Speed Wind Dir Waves Ship Positions

Grenadines III

Last reported at 2016-Jun-27 12:33 UTC. Time now 2016-Jul-02 02:09 UTC.
Position N 43°30' E 007°00'.

Type: Pilot. MMSI: 225910870.

Date/timePositionNaut miles runAvg speedWind from/ knotsBaromVisibWave heightAir tempDewpointWater temp
2016-Jun-27 12:33N 43°30' E 007°00'3 3.2
2016-Jun-27 11:33N 43°33' E 007°01'0 0.0
2016-Jun-27 10:18N 43°33' E 007°01'0 0.0
2016-Jun-27 09:33N 43°33' E 007°01'0 0.0
2016-Jun-27 08:33N 43°33' E 007°01'0 0.0
2016-Jun-27 07:09N 43°33' E 007°01'0 0.0
2016-Jun-27 06:24N 43°33' E 007°01'0 0.0
2016-Jun-26 22:15N 43°33' E 007°01'0 0.0
2016-Jun-26 20:15N 43°33' E 007°01'0 0.0
2016-Jun-26 19:33N 43°33' E 007°01'0 0.0
2016-Jun-26 16:06N 43°33' E 007°01'0 0.0
2016-Jun-26 15:27N 43°33' E 007°01'0 0.0
2016-Jun-26 14:09N 43°33' E 007°01'0 0.0
2016-Jun-26 13:27N 43°33' E 007°01'0 0.0
2016-Jun-26 12:30N 43°33' E 007°01'0 0.0
2016-Jun-26 11:27N 43°33' E 007°01'0 0.0
2016-Jun-26 10:30N 43°33' E 007°01'0 0.0
2016-Jun-26 09:33N 43°33' E 007°01'0 0.0
2016-Jun-26 08:33N 43°33' E 007°01'0 0.0
2016-Jun-26 07:30N 43°33' E 007°01'0 0.0
2016-Jun-26 06:33N 43°33' E 007°01'0 0.0
2016-Jun-26 05:33N 43°33' E 007°01'0 0.0
2016-Jun-26 04:33N 43°33' E 007°01'0 0.0
2016-Jun-26 03:33N 43°33' E 007°01'0 0.0
2016-Jun-26 02:06N 43°33' E 007°01'0 0.0
2016-Jun-26 01:27N 43°33' E 007°01'0 0.0
2016-Jun-26 00:27N 43°33' E 007°01'0 0.0
2016-Jun-25 22:30N 43°33' E 007°01'0 0.0
2016-Jun-25 21:30N 43°33' E 007°01'0 0.0
2016-Jun-25 20:30N 43°33' E 007°01'0 0.0
2016-Jun-25 19:33N 43°33' E 007°01'0 0.0
2016-Jun-25 18:33N 43°33' E 007°01'0 0.0
2016-Jun-25 17:33N 43°33' E 007°01'0 0.0
2016-Jun-25 16:33N 43°33' E 007°01'0 0.0
2016-Jun-25 15:33N 43°33' E 007°01'1 0.6
2016-Jun-25 14:31N 43°33' E 007°02'0 0.0
2016-Jun-25 13:31N 43°33' E 007°02'0 0.0
2016-Jun-25 12:31N 43°33' E 007°02'0 0.0
2016-Jun-25 11:32N 43°33' E 007°02'1 0.3
2016-Jun-25 09:28N 43°33' E 007°01'0 0.0
2016-Jun-25 08:25N 43°33' E 007°01'0 0.0
2016-Jun-25 07:16N 43°33' E 007°01'0 0.0
2016-Jun-25 06:28N 43°33' E 007°01'0 0.0
2016-Jun-25 04:28N 43°33' E 007°01'0 0.0
2016-Jun-25 03:31N 43°33' E 007°01'0 0.0
2016-Jun-24 20:28N 43°33' E 007°01'0 0.0
2016-Jun-24 12:33N 43°33' E 007°01'4 4.1
2016-Jun-24 11:33N 43°29' E 006°59'4 4.0
2016-Jun-24 10:27N 43°33' E 007°01'0 0.0
2016-Jun-24 09:24N 43°33' E 007°01'0 0.0
2016-Jun-24 08:30N 43°33' E 007°01'0 0.0
2016-Jun-24 07:30N 43°33' E 007°01'0 0.0
2016-Jun-24 04:33N 43°33' E 007°01'0 0.0
2016-Jun-24 03:30N 43°33' E 007°01'0 0.0
2016-Jun-24 02:21N 43°33' E 007°01'0 0.0
2016-Jun-24 01:33N 43°33' E 007°01'0 0.0
2016-Jun-24 00:33N 43°33' E 007°01'0 0.0
2016-Jun-23 23:24N 43°33' E 007°01'0 0.0
2016-Jun-23 22:24N 43°33' E 007°01'0 0.0
2016-Jun-23 21:27N 43°33' E 007°01'0 0.0
2016-Jun-23 20:24N 43°33' E 007°01'0 0.0
2016-Jun-23 19:27N 43°33' E 007°01'0 0.0
2016-Jun-23 18:12N 43°33' E 007°01'0 0.0
2016-Jun-23 14:15N 43°33' E 007°01'0 0.0
2016-Jun-23 13:30N 43°33' E 007°01'1 0.6
2016-Jun-23 12:33N 43°32' E 007°01'1 1.2
2016-Jun-23 11:32N 43°31' E 007°00'2 1.6
2016-Jun-23 10:23N 43°33' E 007°01'0 0.0
2016-Jun-23 09:08N 43°33' E 007°01'0 0.0
2016-Jun-23 08:23N 43°33' E 007°01'0 0.0
2016-Jun-23 07:08N 43°33' E 007°01'0 0.0
2016-Jun-23 05:29N 43°33' E 007°01'0 0.0
2016-Jun-23 04:29N 43°33' E 007°01'0 0.0
2016-Jun-23 03:32N 43°33' E 007°01'0 0.0
2016-Jun-23 02:32N 43°33' E 007°01'0 0.0
2016-Jun-23 01:32N 43°33' E 007°01'0 0.0
2016-Jun-22 20:27N 43°33' E 007°01'0 0.5
2016-Jun-22 19:31N 43°33' E 007°01'0 0.0
2016-Jun-22 18:31N 43°33' E 007°01'0 0.0
2016-Jun-22 07:33N 43°33' E 007°01'0 0.0
2016-Jun-22 06:33N 43°33' E 007°01'0 0.0
2016-Jun-22 03:15N 43°33' E 007°01'0 0.0
2016-Jun-22 02:33N 43°33' E 007°01'0 0.0
2016-Jun-21 22:33N 43°33' E 007°01'0 0.0
2016-Jun-21 21:30N 43°33' E 007°01'0 0.0
2016-Jun-21 18:30N 43°33' E 007°01'0 0.0
2016-Jun-21 17:33N 43°33' E 007°01'0 0.0
2016-Jun-21 14:18N 43°33' E 007°01'0 0.0
2016-Jun-21 13:30N 43°33' E 007°01'0 0.5
2016-Jun-21 12:33N 43°33' E 007°01'1 1.2
2016-Jun-21 11:31N 43°32' E 006°59'1 0.6
2016-Jun-21 09:09N 43°33' E 007°01'0 0.0
2016-Jun-21 08:24N 43°33' E 007°01'0 0.0
2016-Jun-21 07:33N 43°33' E 007°01'0 0.0
2016-Jun-20 15:33N 43°33' E 007°01'0 0.0
2016-Jun-20 14:33N 43°33' E 007°01'0 0.2
2016-Jun-20 12:33N 43°33' E 007°01'2 2.2
2016-Jun-20 11:33N 43°30' E 007°01'3 1.2
2016-Jun-20 09:17N 43°33' E 007°01'0 0.0
2016-Jun-20 06:11N 43°33' E 007°01'0 0.0
2016-Jun-20 05:32N 43°33' E 007°01'0 0.0
2016-Jun-20 04:32N 43°33' E 007°01'0 0.0
2016-Jun-20 01:32N 43°33' E 007°01'0 0.0
2016-Jun-20 00:32N 43°33' E 007°01'0 0.0
2016-Jun-19 21:32N 43°33' E 007°01'0 0.0
2016-Jun-19 17:17N 43°33' E 007°01'0 0.0
2016-Jun-19 16:32N 43°33' E 007°01'0 0.0
2016-Jun-19 15:32N 43°33' E 007°01'0 0.0
2016-Jun-19 12:29N 43°33' E 007°01'0 0.0
2016-Jun-19 11:32N 43°33' E 007°01'0 0.0
2016-Jun-19 08:11N 43°33' E 007°01'0 0.0
2016-Jun-19 07:32N 43°33' E 007°01'0 0.0
2016-Jun-19 04:23N 43°33' E 007°01'0 0.0
2016-Jun-19 03:32N 43°33' E 007°01'0 0.0
2016-Jun-19 02:32N 43°33' E 007°01'0 0.0
2016-Jun-19 00:05N 43°33' E 007°01'0 0.0
2016-Jun-18 23:32N 43°33' E 007°01'0 0.0
2016-Jun-18 22:32N 43°33' E 007°01'0 0.0
2016-Jun-18 19:32N 43°33' E 007°01'0 0.0
2016-Jun-18 18:32N 43°33' E 007°01'0 0.1
2016-Jun-18 16:27N 43°33' E 007°01'0 0.0
2016-Jun-18 13:32N 43°33' E 007°01'0 0.0
2016-Jun-18 12:32N 43°33' E 007°01'0 0.0
2016-Jun-18 08:26N 43°33' E 007°01'0 0.0
2016-Jun-18 05:32N 43°33' E 007°01'0 0.0
2016-Jun-18 04:29N 43°33' E 007°01'0 0.0
2016-Jun-18 01:32N 43°33' E 007°01'0 0.0
2016-Jun-18 00:29N 43°33' E 007°01'0 0.0
2016-Jun-17 21:17N 43°33' E 007°01'0 0.0
2016-Jun-17 20:32N 43°33' E 007°01'0 0.0
2016-Jun-17 19:32N 43°33' E 007°01'0 0.0
2016-Jun-17 16:32N 43°33' E 007°01'0 0.0
2016-Jun-17 15:32N 43°33' E 007°01'  

Dump ship's entire track history